Time;durP1;ratioP1;P1;durP2;ratioP2;P2;SDS_P1;SDS_P2;PMS_P1;PMS_P2;Temp;Humidity;BMP_temperature;BMP_pressure;BME280_temperature;BME280_humidity;BME280_pressure;Samples;Min_cycle;Max_cycle;Signal;HPM_P1;HPM_P2
2023/01/15 00:02:23;;;;;;;3.33;1.15;;;9.10;99.90;;;7.65;100.00;98881.34;4966007;28;20588;-82
2023/01/15 00:04:56;;;;;;;2.00;0.90;;;9.10;99.90;;;7.68;100.00;98891.63;4950264;28;20114;-81
2023/01/15 00:07:25;;;;;;;2.42;1.20;;;9.10;99.90;;;7.67;100.00;98888.16;4949374;28;20038;-81
2023/01/15 00:09:51;;;;;;;1.50;0.75;;;9.20;99.90;;;7.70;100.00;98885.34;4967544;28;20039;-81
2023/01/15 00:12:17;;;;;;;0.35;0.30;;;9.20;99.90;;;7.72;100.00;98870.34;4982409;28;20051;-82
2023/01/15 00:14:51;;;;;;;2.67;0.80;;;9.20;99.90;;;7.75;100.00;98882.41;4982441;28;20078;-81
2023/01/15 00:17:17;;;;;;;1.52;0.80;;;9.20;99.90;;;7.77;100.00;98878.75;4979063;28;20503;-82
2023/01/15 00:19:43;;;;;;;3.45;0.60;;;9.20;99.90;;;7.78;100.00;98887.47;4951616;28;20061;-82
2023/01/15 00:22:09;;;;;;;4.03;0.90;;;9.30;99.90;;;7.83;100.00;98881.94;4968404;28;20114;-81
2023/01/15 00:27:40;;;;;;;2.25;0.88;;;9.30;99.90;;;7.86;100.00;98874.72;4965382;28;20739;-81
2023/01/15 00:30:16;;;;;;;3.13;0.90;;;9.30;99.90;;;7.84;100.00;98873.13;4955331;28;20082;-82
2023/01/15 00:32:43;;;;;;;5.03;1.05;;;9.30;99.90;;;7.85;100.00;98865.16;4962380;28;20170;-80
2023/01/15 00:35:29;;;;;;;1.35;1.08;;;9.30;99.90;;;7.88;100.00;98878.06;4951000;28;20634;-81
2023/01/15 00:38:03;;;;;;;5.85;1.30;;;9.30;99.90;;;7.87;100.00;98863.28;4982264;28;20047;-82
2023/01/15 00:40:28;;;;;;;2.63;0.90;;;9.40;99.90;;;7.89;100.00;98863.19;4947473;28;20046;-82
2023/01/15 00:42:54;;;;;;;3.50;1.23;;;9.40;99.90;;;7.91;100.00;98872.63;4968277;28;20083;-82
2023/01/15 00:45:20;;;;;;;3.67;1.20;;;9.40;99.90;;;7.90;100.00;98868.31;4947345;28;20081;-86
2023/01/15 00:47:47;;;;;;;4.63;1.60;;;9.40;99.90;;;7.95;100.00;98865.41;4968966;28;20035;-82
2023/01/15 00:50:18;;;;;;;1.63;0.93;;;9.40;99.90;;;7.95;100.00;98874.13;4963906;28;20440;-83
2023/01/15 00:52:43;;;;;;;4.82;1.00;;;9.40;99.90;;;7.98;100.00;98875.69;4962584;28;20057;-82
2023/01/15 00:55:09;;;;;;;1.83;1.10;;;9.50;99.90;;;8.03;100.00;98881.47;4967144;28;20403;-80
2023/01/15 00:57:35;;;;;;;6.28;1.05;;;9.50;99.90;;;8.02;100.00;98875.38;4966786;28;20035;-81
2023/01/15 01:00:01;;;;;;;2.58;1.20;;;9.50;99.90;;;8.05;100.00;98873.50;4966080;28;20043;-82
2023/01/15 01:02:34;;;;;;;4.82;1.33;;;9.50;99.90;;;8.10;100.00;98871.41;4968450;28;20109;-82
2023/01/15 01:05:00;;;;;;;4.32;1.20;;;9.50;99.90;;;8.09;100.00;98867.97;4948030;28;20058;-82
2023/01/15 01:07:25;;;;;;;1.83;1.08;;;9.50;99.90;;;8.11;100.00;98862.63;4963253;28;20480;-82
2023/01/15 01:09:51;;;;;;;1.75;1.02;;;9.60;99.90;;;8.14;100.00;98865.03;4968805;28;20049;-81
2023/01/15 01:12:17;;;;;;;1.95;0.88;;;9.60;99.90;;;8.15;100.00;98858.84;4966730;28;20038;-82
2023/01/15 01:14:48;;;;;;;2.05;1.02;;;9.60;99.90;;;8.16;100.00;98869.25;4951207;28;20047;-82
2023/01/15 01:17:14;;;;;;;1.90;1.08;;;9.60;99.90;;;8.21;100.00;98874.19;4967659;28;20063;-81
2023/01/15 01:19:40;;;;;;;2.03;1.10;;;9.60;99.90;;;8.21;100.00;98869.78;4948936;28;20687;-81
2023/01/15 01:22:06;;;;;;;2.05;1.20;;;9.70;99.90;;;8.22;100.00;98874.06;4967431;28;20039;-80
2023/01/15 01:24:31;;;;;;;2.67;1.20;;;9.70;99.90;;;8.28;100.00;98869.38;4964408;28;20035;-82
2023/01/15 01:26:57;;;;;;;1.23;0.85;;;9.70;99.90;;;8.30;100.00;98873.56;4964741;28;20130;-82
2023/01/15 01:29:33;;;;;;;1.30;0.65;;;9.70;99.90;;;8.31;100.00;98874.41;4965614;28;20059;-82
2023/01/15 01:31:58;;;;;;;0.80;0.70;;;9.70;99.90;;;8.30;100.00;98870.13;4946567;28;20033;-82
2023/01/15 01:34:24;;;;;;;4.43;0.60;;;9.70;99.90;;;8.33;100.00;98870.72;4963041;28;20043;-81
2023/01/15 01:36:59;;;;;;;1.13;0.80;;;9.80;99.90;;;8.33;100.00;98872.53;4972990;28;20109;-81
2023/01/15 01:39:25;;;;;;;1.92;1.00;;;9.80;99.90;;;8.33;100.00;98877.75;4962506;28;20039;-82
2023/01/15 01:41:51;;;;;;;2.25;0.75;;;9.80;99.90;;;8.36;100.00;98882.81;4965154;28;20456;-82
2023/01/15 01:44:32;;;;;;;0.88;0.60;;;9.80;99.90;;;8.32;100.00;98876.94;4949200;28;20086;-82
2023/01/15 01:47:05;;;;;;;4.35;1.08;;;9.80;99.90;;;8.36;100.00;98902.00;4967197;28;20075;-82
2023/01/15 01:49:32;;;;;;;5.20;0.95;;;9.80;99.90;;;8.40;100.00;98969.09;4967905;28;20046;-81
2023/01/15 01:52:12;;;;;;;0.73;0.40;;;9.70;99.90;;;8.24;100.00;98970.97;4946898;28;20054;-81
2023/01/15 01:54:39;;;;;;;2.25;0.40;;;9.60;99.90;;;8.00;100.00;98971.63;4950027;28;20027;-81
2023/01/15 01:57:09;;;;;;;3.88;0.50;;;9.40;99.90;;;7.86;100.00;98973.44;4948023;28;20672;-82
2023/01/15 01:59:38;;;;;;;3.90;0.70;;;9.20;99.90;;;7.66;100.00;98972.06;4951701;28;20047;-82
2023/01/15 02:02:05;;;;;;;2.70;0.38;;;9.10;99.90;;;7.47;100.00;98967.13;4960947;28;20031;-82
2023/01/15 02:04:31;;;;;;;3.83;0.50;;;9.00;99.90;;;7.41;100.00;98965.75;4945487;28;20082;-82
2023/01/15 02:07:05;;;;;;;1.67;0.50;;;8.90;99.90;;;7.38;100.00;98979.00;4947807;28;20038;-81
2023/01/15 02:09:31;;;;;;;6.10;0.70;;;8.80;99.90;;;7.25;100.00;98994.63;4964164;28;20039;-82
2023/01/15 02:12:24;;;;;;;6.72;0.73;;;8.70;99.90;;;7.19;100.00;98997.63;4947343;28;20520;-81
2023/01/15 02:15:15;;;;;;;5.68;0.68;;;8.60;99.90;;;7.08;100.00;98998.25;4950605;28;20024;-81
2023/01/15 02:18:00;;;;;;;3.22;0.68;;;8.50;99.90;;;6.98;100.00;99003.22;4945728;28;20066;-81
2023/01/15 02:20:48;;;;;;;3.75;0.93;;;8.40;99.90;;;6.89;100.00;99011.63;4948211;28;21016;-82
2023/01/15 02:24:16;;;;;;;4.28;0.90;;;8.40;99.90;;;6.83;100.00;99032.06;4964063;28;20721;-81
2023/01/15 02:27:01;;;;;;;5.47;0.93;;;8.30;99.90;;;6.78;100.00;99045.38;4952121;28;20051;-81
2023/01/15 02:29:51;;;;;;;5.80;1.00;;;8.30;99.90;;;6.80;100.00;99042.69;4950884;28;20749;-82
2023/01/15 02:32:30;;;;;;;6.10;0.82;;;8.20;99.90;;;6.77;100.00;99041.09;4962429;28;20023;-81
2023/01/15 02:35:04;;;;;;;9.73;1.20;;;8.20;99.90;;;6.75;100.00;99041.19;4962999;28;20082;-82
2023/01/15 02:37:36;;;;;;;5.60;0.88;;;8.20;99.90;;;6.73;100.00;99036.97;4965982;28;20039;-82
2023/01/15 02:40:12;;;;;;;5.65;0.77;;;8.20;99.90;;;6.70;100.00;99027.53;4966405;28;20087;-83
2023/01/15 02:42:39;;;;;;;7.72;0.95;;;8.10;99.90;;;6.72;100.00;99033.53;4960885;28;20030;-82
2023/01/15 02:45:13;;;;;;;5.90;0.70;;;8.20;99.90;;;6.71;100.00;99023.13;4964716;28;20043;-83
2023/01/15 02:47:45;;;;;;;6.40;0.60;;;8.10;99.90;;;6.68;100.00;99026.78;4962184;28;20032;-82
2023/01/15 02:50:16;;;;;;;3.35;0.40;;;8.10;99.90;;;6.64;100.00;99012.19;4950523;28;20380;-82
2023/01/15 02:52:59;;;;;;;3.45;0.40;;;8.00;99.90;;;6.61;100.00;99009.75;4961988;28;20071;-82
2023/01/15 02:55:33;;;;;;;2.80;0.35;;;8.10;99.90;;;6.55;100.00;99016.19;4966464;28;20027;-81
2023/01/15 02:58:07;;;;;;;2.17;0.40;;;8.00;99.90;;;6.50;100.00;99018.22;4948359;28;20039;-83
2023/01/15 03:00:40;;;;;;;0.75;0.30;;;8.00;99.90;;;6.50;100.00;99014.75;4962955;28;20055;-83
2023/01/15 03:03:59;;;;;;;5.40;0.60;;;8.00;99.90;;;6.48;100.00;99014.84;4966119;28;20046;-82
2023/01/15 03:07:04;;;;;;;2.47;0.45;;;7.90;99.90;;;6.43;100.00;99009.03;4968163;28;20063;-82
2023/01/15 03:09:31;;;;;;;3.92;0.35;;;7.90;99.90;;;6.38;100.00;98994.53;4953241;28;20058;-81
2023/01/15 03:13:03;;;;;;;5.20;0.40;;;7.90;99.90;;;6.31;100.00;99012.34;4962495;28;20086;-82
2023/01/15 03:19:02;;;;;;;3.78;0.90;;;7.80;99.90;;;6.25;100.00;98997.84;4962454;28;20542;-81
2023/01/15 03:21:57;;;;;;;2.03;0.30;;;7.80;99.90;;;6.24;100.00;98985.72;4980112;28;20034;-81
2023/01/15 03:25:12;;;;;;;3.78;0.60;;;7.80;99.90;;;6.22;100.00;99007.63;4964033;28;20069;-82
2023/01/15 03:27:38;;;;;;;1.67;0.40;;;7.70;99.90;;;6.19;100.00;99013.88;4950794;28;20051;-81
2023/01/15 03:30:16;;;;;;;3.83;0.40;;;7.70;99.90;;;6.18;100.00;99020.03;4964640;28;20042;-81
2023/01/15 03:32:42;;;;;;;4.40;0.68;;;7.60;99.90;;;6.15;100.00;99038.47;4947542;28;20030;-82
2023/01/15 03:35:58;;;;;;;3.15;0.45;;;7.70;99.90;;;6.14;100.00;99044.66;4963221;28;20097;-82
2023/01/15 03:38:35;;;;;;;6.88;0.57;;;7.60;99.90;;;6.13;100.00;99049.03;4967684;28;20047;-82
2023/01/15 03:41:13;;;;;;;7.15;1.00;;;7.60;99.90;;;6.07;100.00;99043.28;4948928;28;20076;-82
2023/01/15 03:44:43;;;;;;;3.97;0.65;;;7.60;99.90;;;6.07;100.00;99041.53;4964925;28;20492;-82
2023/01/15 03:47:24;;;;;;;4.20;0.60;;;7.60;99.90;;;6.07;100.00;99030.22;4913311;28;20455;-80
2023/01/15 03:50:07;;;;;;;2.53;0.50;;;7.50;99.90;;;6.02;100.00;99017.41;4962454;28;20133;-81
2023/01/15 03:52:54;;;;;;;3.00;0.50;;;7.50;99.90;;;6.01;100.00;99031.41;4961195;28;20058;-82
2023/01/15 03:56:01;;;;;;;5.32;0.30;;;7.50;99.90;;;5.97;100.00;99034.28;4973879;28;20032;-81
2023/01/15 03:58:42;;;;;;;3.53;0.50;;;7.50;99.90;;;5.94;100.00;99033.53;4975609;28;20455;-82
2023/01/15 04:01:19;;;;;;;5.78;0.85;;;7.40;99.90;;;5.94;100.00;99027.44;4969904;28;20034;-80
2023/01/15 04:03:54;;;;;;;4.85;0.65;;;7.40;99.90;;;5.92;100.00;99021.44;4959661;28;20055;-82
2023/01/15 04:06:21;;;;;;;1.67;0.40;;;7.40;99.90;;;5.88;100.00;99020.75;4946495;28;20039;-81
2023/01/15 04:08:48;;;;;;;2.92;0.45;;;7.40;99.90;;;5.91;100.00;99028.41;4967448;28;20058;-81
2023/01/15 04:11:25;;;;;;;4.20;0.60;;;7.40;99.90;;;5.89;100.00;99022.44;4960377;28;20031;-82
2023/01/15 04:13:51;;;;;;;0.63;0.32;;;7.40;99.90;;;5.88;100.00;99027.75;4963147;28;20447;-81
2023/01/15 04:16:27;;;;;;;6.43;0.60;;;7.40;99.90;;;5.83;100.00;99022.78;4961297;28;20396;-81
2023/01/15 04:18:53;;;;;;;3.58;0.45;;;7.30;99.90;;;5.84;100.00;99023.63;4959738;28;20039;-81
2023/01/15 04:21:20;;;;;;;4.88;0.50;;;7.30;99.90;;;5.85;100.00;99020.94;4960813;28;20046;-81
2023/01/15 04:23:46;;;;;;;5.03;0.70;;;7.30;99.90;;;5.84;100.00;99016.63;4946407;28;20039;-80
2023/01/15 04:26:17;;;;;;;5.38;0.80;;;7.30;99.90;;;5.78;100.00;99003.88;4967058;28;20118;-81
2023/01/15 04:28:43;;;;;;;10.23;0.65;;;7.30;99.90;;;5.80;100.00;99012.50;4962153;28;20063;-81
2023/01/15 04:31:09;;;;;;;4.30;0.75;;;7.30;99.90;;;5.83;100.00;99027.16;4951319;28;20020;-81
2023/01/15 04:33:35;;;;;;;4.47;0.68;;;7.30;99.90;;;5.80;100.00;99012.50;4963344;28;20027;-81
2023/01/15 04:36:02;;;;;;;8.50;1.25;;;7.30;99.90;;;5.79;100.00;99018.66;4949872;28;20027;-81
2023/01/15 04:38:34;;;;;;;4.00;0.70;;;7.30;99.90;;;5.79;100.00;99028.22;4949009;28;20081;-81
2023/01/15 04:44:07;;;;;;;9.73;0.73;;;7.30;99.90;;;5.79;100.00;98983.84;4966649;28;20041;-81
2023/01/15 04:46:46;;;;;;;5.68;0.75;;;7.30;99.90;;;5.76;100.00;99017.03;4965772;28;20073;-79
2023/01/15 04:49:15;;;;;;;6.35;0.88;;;7.30;99.90;;;5.73;100.00;99011.16;4949550;28;20517;-81
2023/01/15 04:51:41;;;;;;;9.15;0.80;;;7.20;99.90;;;5.72;100.00;99012.06;4962720;28;20142;-80
2023/01/15 04:54:09;;;;;;;4.35;0.80;;;7.20;99.90;;;5.74;100.00;99004.97;4963341;28;20052;-82
2023/01/15 04:56:49;;;;;;;10.43;1.10;;;7.20;99.90;;;5.71;100.00;99015.59;4966762;28;20041;-81
2023/01/15 04:59:20;;;;;;;5.10;0.80;;;7.20;99.90;;;5.71;100.00;99024.28;4948346;28;20039;-81
2023/01/15 05:01:46;;;;;;;6.45;1.08;;;7.20;99.90;;;5.72;100.00;99014.66;4966436;28;20228;-81
2023/01/15 05:04:12;;;;;;;7.55;0.75;;;7.30;99.90;;;5.73;100.00;99021.59;4949359;28;20561;-81
2023/01/15 05:06:38;;;;;;;11.20;1.05;;;7.30;99.90;;;5.73;100.00;99021.59;4962957;28;20058;-82
2023/01/15 05:09:04;;;;;;;8.30;1.00;;;7.20;99.90;;;5.72;100.00;99010.31;4965036;28;20029;-81
2023/01/15 05:11:38;;;;;;;9.98;1.05;;;7.30;99.90;;;5.72;100.00;99014.66;4965005;28;20121;-81
2023/01/15 05:14:05;;;;;;;8.32;1.10;;;7.20;99.90;;;5.72;100.00;99012.06;4963155;28;20032;-81
2023/01/15 05:16:32;;;;;;;3.55;0.70;;;7.20;99.90;;;5.76;100.00;99005.75;4945989;28;20447;-80
2023/01/15 05:19:05;;;;;;;9.73;0.90;;;7.30;99.90;;;5.74;100.00;98999.75;4950378;28;20085;-80
2023/01/15 05:21:35;;;;;;;10.43;0.90;;;7.20;99.90;;;5.70;100.00;98998.22;4964721;28;20117;-80
2023/01/15 05:24:11;;;;;;;6.35;0.90;;;7.20;99.90;;;5.71;100.00;98994.72;4949258;28;20038;-80
2023/01/15 05:26:37;;;;;;;5.40;0.80;;;7.20;99.90;;;5.71;100.00;98997.31;4959458;28;20412;-81
2023/01/15 05:29:03;;;;;;;6.90;0.90;;;7.20;99.90;;;5.71;100.00;98994.72;4964283;28;20042;-80
2023/01/15 05:31:32;;;;;;;6.72;0.60;;;7.20;99.90;;;5.72;100.00;99004.22;4965666;28;20070;-80
2023/01/15 05:33:58;;;;;;;7.25;0.77;;;7.20;99.90;;;5.68;100.00;98992.25;4966246;28;20034;-81
2023/01/15 05:36:29;;;;;;;7.38;1.10;;;7.20;99.90;;;5.68;100.00;98992.25;4964596;28;20512;-81
2023/01/15 05:39:00;;;;;;;4.65;0.80;;;7.20;99.90;;;5.66;100.00;98984.53;4948955;28;20039;-81
2023/01/15 05:44:13;;;;;;;7.45;1.00;;;7.20;99.90;;;5.63;100.00;98991.66;4962181;28;20112;-80
2023/01/15 05:46:41;;;;;;;7.97;1.00;;;7.20;99.90;;;5.63;99.85;98968.16;4948142;28;20038;-80
2023/01/15 05:49:16;;;;;;;6.53;1.48;;;7.20;99.90;;;5.64;99.38;98955.03;4964164;28;20050;-80
2023/01/15 05:51:45;;;;;;;6.47;1.00;;;7.20;99.90;;;5.65;98.67;98956.72;4948733;28;20058;-81
2023/01/15 05:54:23;;;;;;;5.78;0.93;;;7.20;99.90;;;5.68;98.21;98973.97;4966085;28;20027;-80
2023/01/15 05:56:50;;;;;;;6.35;0.73;;;7.20;99.90;;;5.64;97.80;98985.53;4948530;28;20030;-81
2023/01/15 05:59:24;;;;;;;10.30;1.20;;;7.20;99.90;;;5.66;96.96;99001.94;4947935;28;20030;-80
2023/01/15 06:01:51;;;;;;;5.25;0.80;;;7.20;99.90;;;5.68;96.56;99008.78;4963251;28;20500;-80
2023/01/15 06:04:20;;;;;;;8.15;0.85;;;7.20;99.90;;;5.68;96.24;99014.00;4955774;28;20533;-81
2023/01/15 06:06:47;;;;;;;7.22;0.88;;;7.20;99.90;;;5.68;95.85;99013.16;4963148;28;20090;-81
2023/01/15 06:09:13;;;;;;;3.85;0.70;;;7.20;99.90;;;5.66;95.50;99012.38;4965838;28;20027;-81
2023/01/15 06:11:40;;;;;;;5.03;0.73;;;7.20;99.90;;;5.65;95.15;99018.53;4947550;28;20051;-80
2023/01/15 06:14:07;;;;;;;2.97;0.52;;;7.20;99.90;;;5.60;94.44;99004.91;4943268;28;20030;-81
2023/01/15 06:16:33;;;;;;;8.65;1.42;;;7.20;99.90;;;5.64;93.98;99016.88;4961661;28;20022;-80
2023/01/15 06:19:10;;;;;;;6.45;0.93;;;7.20;99.90;;;5.62;93.73;99003.88;4948407;28;20042;-80
2023/01/15 06:21:36;;;;;;;3.42;0.40;;;7.20;99.90;;;5.57;93.06;98992.00;4951432;28;20093;-80
2023/01/15 06:24:02;;;;;;;3.92;0.82;;;7.20;99.90;;;5.62;92.49;99000.44;4963864;28;20027;-80
2023/01/15 06:26:38;;;;;;;1.65;0.38;;;7.20;99.90;;;5.61;92.25;98996.13;4964293;28;20113;-81
2023/01/15 06:29:03;;;;;;;5.03;0.60;;;7.10;99.90;;;5.58;92.00;99004.97;4960385;28;20038;-81
2023/01/15 06:31:31;;;;;;;6.35;0.68;;;7.20;99.90;;;5.57;91.09;99005.88;4961064;28;20034;-80
2023/01/15 06:33:59;;;;;;;5.90;0.60;;;7.10;99.90;;;5.56;91.41;99012.03;4964076;28;20069;-80
2023/01/15 06:36:26;;;;;;;2.47;0.50;;;7.10;99.90;;;5.55;91.02;99013.81;4963514;28;20559;-80
2023/01/15 06:39:02;;;;;;;;;;;;;;;;;;;;;
2023/01/15 06:47:21;;;;;;;3.88;0.50;;;7.00;99.90;;;5.41;90.73;99033.75;4935146;28;20492;-80
2023/01/15 06:49:49;;;;;;;8.07;0.82;;;6.90;99.90;;;5.36;90.89;99023.56;4961738;28;20046;-81
2023/01/15 06:52:15;;;;;;;3.85;0.60;;;6.90;99.90;;;5.33;90.92;99021.06;4961663;28;20024;-80
2023/01/15 06:54:41;;;;;;;5.93;0.75;;;6.90;99.90;;;5.30;90.82;99036.91;4970418;28;20051;-79
2023/01/15 06:57:10;;;;;;;7.85;0.73;;;6.90;99.90;;;5.28;91.17;99046.59;4960901;28;20031;-81
2023/01/15 06:59:35;;;;;;;2.80;0.40;;;6.90;99.90;;;5.27;91.05;99052.72;4962872;28;20035;-80
2023/01/15 07:02:01;;;;;;;4.55;0.65;;;6.80;99.90;;;5.28;90.69;99046.59;4962169;28;20389;-79
2023/01/15 07:04:27;;;;;;;7.28;0.70;;;6.80;99.90;;;5.26;90.60;99043.22;4962504;28;20166;-81
2023/01/15 07:06:53;;;;;;;6.43;0.57;;;6.80;99.90;;;5.23;90.36;99036.38;4944706;28;20042;-81
2023/01/15 07:09:19;;;;;;;6.45;0.45;;;6.80;99.90;;;5.19;90.26;99042.69;4946500;28;20035;-80
2023/01/15 07:11:48;;;;;;;9.98;0.75;;;6.80;99.90;;;5.21;90.14;99056.50;4965524;28;20122;-80
2023/01/15 07:14:26;;;;;;;4.65;0.85;;;6.80;99.90;;;5.13;89.97;99051.66;4961486;28;20036;-80
2023/01/15 07:16:58;;;;;;;5.38;0.80;;;6.70;99.90;;;5.13;89.74;99058.66;4959553;28;20387;-81
2023/01/15 07:19:24;;;;;;;5.78;0.85;;;6.70;99.90;;;5.13;89.70;99067.31;4945894;28;20171;-80
2023/01/15 07:21:50;;;;;;;5.57;0.80;;;6.70;99.90;;;5.13;89.36;99064.69;4964108;28;20065;-80
2023/01/15 07:24:16;;;;;;;9.10;0.98;;;6.70;99.90;;;5.08;89.53;99061.50;4961828;28;20098;-80
2023/01/15 07:26:48;;;;;;;7.60;0.68;;;6.70;99.90;;;5.07;89.14;99065.00;4959801;28;20035;-81
2023/01/15 07:29:16;;;;;;;7.93;0.93;;;6.70;99.90;;;5.10;89.39;99058.81;4958069;28;20042;-80
2023/01/15 07:31:42;;;;;;;10.27;2.05;;;6.60;99.90;;;5.06;89.58;99057.28;4961038;28;20488;-80
2023/01/15 07:34:09;;;;;;;3.30;0.70;;;6.60;99.90;;;5.01;89.61;99062.75;4964787;28;20034;-80
2023/01/15 07:36:38;;;;;;;2.80;0.77;;;6.60;99.90;;;5.00;89.79;99057.59;4962375;28;20436;-81
2023/01/15 07:39:06;;;;;;;7.13;0.95;;;6.60;99.90;;;4.95;90.04;99057.81;4946554;28;20097;-80
2023/01/15 07:49:54;;;;;;;6.28;0.82;;;6.40;99.90;;;4.87;91.24;99067.78;4960823;28;20042;-80
2023/01/15 07:52:21;;;;;;;4.88;0.65;;;6.50;99.90;;;4.82;91.67;99069.78;4962134;28;21181;-81
2023/01/15 07:54:49;;;;;;;4.32;0.60;;;6.40;99.90;;;4.85;91.94;99087.88;4946463;28;20038;-80
2023/01/15 07:57:20;;;;;;;6.32;0.80;;;6.40;99.90;;;4.84;92.36;99079.22;4946191;28;20036;-79
2023/01/15 07:59:46;;;;;;;7.43;0.90;;;6.40;99.90;;;4.84;92.77;99075.78;4948169;28;20085;-81
2023/01/15 08:02:18;;;;;;;3.38;0.63;;;6.40;99.90;;;4.86;93.24;99068.69;4964061;28;20039;-81
2023/01/15 08:04:44;;;;;;;4.72;1.00;;;6.40;99.90;;;4.82;93.47;99064.56;4967847;28;20053;-80
2023/01/15 08:07:11;;;;;;;5.35;0.90;;;6.40;99.90;;;4.84;93.55;99074.00;4947231;28;20039;-79
2023/01/15 08:09:37;;;;;;;4.13;0.65;;;6.40;99.90;;;4.84;94.33;99076.59;4964810;28;20050;-79
2023/01/15 08:17:37;;;;;;;6.60;1.00;;;6.40;99.90;;;4.84;94.84;99081.81;4965271;28;20042;-80
2023/01/15 08:20:14;;;;;;;10.73;0.95;;;6.40;99.90;;;4.85;94.59;99086.09;4966792;28;20034;-80
2023/01/15 08:22:41;;;;;;;3.20;0.75;;;6.40;99.90;;;4.86;95.17;99077.38;4949481;28;20066;-80
2023/01/15 08:25:09;;;;;;;4.28;0.82;;;6.40;99.90;;;4.85;94.88;99095.69;4951081;28;20077;-80
2023/01/15 08:27:39;;;;;;;8.10;0.98;;;6.50;99.90;;;4.90;95.55;99078.06;4965750;28;20043;-81
2023/01/15 08:30:08;;;;;;;6.70;0.90;;;6.40;99.90;;;4.91;95.39;99077.16;4947168;28;20025;-79
2023/01/15 08:32:39;;;;;;;5.63;0.95;;;6.50;99.90;;;4.94;95.34;99079.59;4966992;28;20034;-81
2023/01/15 08:35:05;;;;;;;6.53;0.85;;;6.50;99.90;;;4.98;95.38;99081.13;4964455;28;20035;-80
2023/01/15 08:37:31;;;;;;;6.18;0.93;;;6.50;99.90;;;4.97;95.17;99074.25;4963435;28;20034;-80
2023/01/15 08:39:57;;;;;;;8.38;0.85;;;6.50;99.90;;;5.06;95.40;99086.81;4962719;28;20026;-81
2023/01/15 08:42:23;;;;;;;4.22;1.05;;;6.60;99.90;;;5.13;95.11;99088.19;4963751;28;20031;-80
2023/01/15 08:44:49;;;;;;;8.43;1.02;;;6.60;99.90;;;5.17;95.50;99101.09;4967145;28;20035;-78
2023/01/15 08:47:18;;;;;;;8.50;1.15;;;6.70;99.90;;;5.21;94.98;99098.25;4963014;28;20041;-80
2023/01/15 08:49:49;;;;;;;9.70;1.80;;;6.70;99.90;;;5.26;94.67;99092.78;4964816;28;20111;-80
2023/01/15 08:52:17;;;;;;;3.95;0.90;;;6.80;99.90;;;5.29;94.35;99087.41;4945419;28;20055;-80
2023/01/15 08:54:51;;;;;;;11.30;7.00;;;6.80;99.90;;;5.37;93.85;99090.47;4948826;28;20019;-81
2023/01/15 08:57:16;;;;;;;4.65;2.30;;;6.80;99.90;;;5.42;93.39;99079.78;4963854;28;20630;-81
2023/01/15 08:59:42;;;;;;;1.38;0.50;;;6.90;99.90;;;5.49;93.28;99073.34;4964914;28;20069;-81
2023/01/15 09:02:20;;;;;;;4.03;1.88;;;6.90;99.90;;;5.51;92.97;99077.56;4964079;28;20113;-79
2023/01/15 09:04:46;;;;;;;6.88;4.72;;;7.00;99.90;;;5.60;92.63;99083.22;4962933;28;20141;-82
2023/01/15 09:07:12;;;;;;;19.83;17.92;;;7.00;99.90;;;5.64;92.54;99097.81;4965855;28;20042;-80
2023/01/15 09:09:38;;;;;;;7.57;1.23;;;7.00;99.90;;;5.61;92.27;99097.97;4965488;28;20042;-82
2023/01/15 09:12:04;;;;;;;7.55;1.20;;;7.10;99.90;;;5.64;92.35;99105.66;4963284;28;20130;-80
2023/01/15 09:14:32;;;;;;;7.75;1.20;;;7.10;99.90;;;5.65;91.88;99105.56;4964389;28;20040;-80
2023/01/15 09:16:59;;;;;;;6.60;1.20;;;7.10;99.90;;;5.65;92.01;99089.88;4949529;28;20035;-80
2023/01/15 09:19:25;;;;;;;7.13;1.20;;;7.10;99.90;;;5.60;91.97;99094.50;4963322;28;20099;-80
2023/01/15 09:21:51;;;;;;;12.35;1.42;;;7.10;99.90;;;5.59;92.01;99100.63;4962091;28;20059;-79
2023/01/15 09:24:19;;;;;;;11.73;1.30;;;7.10;99.90;;;5.66;91.91;99098.56;4945362;28;20070;-79
2023/01/15 09:26:45;;;;;;;5.18;1.25;;;7.20;99.90;;;5.73;92.13;99098.16;4959686;28;20101;-80
2023/01/15 09:29:17;;;;;;;6.93;1.13;;;7.10;99.90;;;5.72;91.83;99106.06;4960904;28;20397;-80
2023/01/15 09:31:46;;;;;;;7.82;1.17;;;7.20;99.90;;;5.79;91.40;99098.75;4964691;28;20114;-80
2023/01/15 09:34:17;;;;;;;3.78;1.05;;;7.20;99.90;;;5.81;91.26;99097.78;4960465;28;20023;-81
2023/01/15 09:36:46;;;;;;;9.48;1.52;;;7.20;99.90;;;5.83;91.32;99101.16;4966669;28;20039;-80
2023/01/15 09:39:12;;;;;;;12.50;2.08;;;7.30;99.90;;;5.84;91.23;99097.59;4963668;28;20549;-80
2023/01/15 09:42:09;;;;;;;12.25;1.40;;;7.30;99.90;;;5.89;90.65;99098.19;4965632;28;20051;-80
2023/01/15 09:45:05;;;;;;;;;;;7.30;99.90;;;5.90;90.62;99089.44;4968119;28;20031;-80
2023/01/15 09:47:40;;;;;;;10.20;1.40;;;7.30;99.90;;;5.97;90.26;99115.28;4963972;28;20604;-81
2023/01/15 09:50:43;;;;;;;7.47;1.38;;;7.40;99.90;;;5.83;90.07;99101.16;4962240;28;20030;-80
2023/01/15 09:53:33;;;;;;;10.63;1.42;;;7.30;99.90;;;5.87;89.85;99107.03;4963185;28;20112;-79
2023/01/15 09:56:04;;;;;;;9.45;1.95;;;7.30;99.90;;;5.92;90.22;99118.09;4966916;28;20560;-79
2023/01/15 09:58:41;;;;;;;7.25;1.10;;;7.30;99.90;;;5.87;90.31;99113.09;4946563;28;20047;-80
2023/01/15 10:01:18;;;;;;;12.95;1.50;;;7.40;99.90;;;5.85;90.43;99104.53;4962323;28;20062;-81
2023/01/15 10:04:03;;;;;;;15.82;2.90;;;7.30;99.90;;;5.83;90.41;99098.53;4959251;28;20047;-80
2023/01/15 10:06:40;;;;;;;8.68;1.52;;;7.30;99.90;;;5.88;90.50;99104.34;4963756;28;20039;-81
2023/01/15 10:09:33;;;;;;;6.90;1.40;;;7.40;99.90;;;5.90;90.74;99102.50;4964269;28;20432;-81
2023/01/15 10:12:44;;;;;;;8.40;1.30;;;7.30;99.90;;;5.90;90.37;99099.88;4961944;28;20035;-81
2023/01/15 10:15:37;;;;;;;9.93;1.50;;;7.30;99.90;;;5.83;90.21;99089.84;4949382;28;20057;-80
2023/01/15 10:18:07;;;;;;;9.05;1.60;;;7.30;99.90;;;5.86;90.43;99095.75;4966141;28;20043;-80
2023/01/15 10:21:19;;;;;;;12.35;1.60;;;7.30;99.90;;;5.80;90.20;99095.22;4964462;28;20062;-80
2023/01/15 10:24:12;;;;;;;13.27;1.85;;;7.30;99.90;;;5.73;90.47;99086.88;4962983;28;20046;-80
2023/01/15 10:26:55;;;;;;;11.98;1.80;;;7.30;99.90;;;5.73;90.40;99090.31;4964260;28;20046;-81
2023/01/15 10:30:15;;;;;;;11.93;1.90;;;7.30;99.90;;;5.78;89.79;99103.13;4945837;28;20047;-80
2023/01/15 10:32:57;;;;;;;13.80;2.20;;;7.30;99.90;;;5.87;90.27;99099.19;4912042;29;20123;-80
2023/01/15 10:36:25;;;;;;;17.73;2.20;;;7.30;99.90;;;5.84;89.55;99094.97;4961963;28;20106;-80
2023/01/15 10:39:20;;;;;;;13.65;1.90;;;7.40;99.90;;;5.89;89.85;99097.34;4969132;28;20086;-80
2023/01/15 10:42:26;;;;;;;13.43;1.70;;;7.40;99.90;;;5.82;88.96;99094.22;4958849;28;20444;-81
2023/01/15 10:45:09;;;;;;;16.23;2.22;;;7.30;99.90;;;5.92;89.45;99084.97;4931091;28;20110;-81
2023/01/15 10:47:41;;;;;;;13.38;2.38;;;7.40;99.90;;;5.94;88.74;99093.59;4963610;28;20047;-80
2023/01/15 10:50:31;;;;;;;12.80;2.15;;;7.40;99.90;;;5.96;88.58;99088.28;4959499;28;20043;-80
2023/01/15 10:53:18;;;;;;;15.02;1.88;;;7.40;99.90;;;5.98;88.14;99090.81;4961956;28;20089;-80
2023/01/15 10:55:58;;;;;;;8.45;1.70;;;7.40;99.90;;;5.95;88.03;99077.00;4965339;28;20034;-80
2023/01/15 10:59:03;;;;;;;17.45;1.90;;;7.50;99.90;;;6.03;87.75;99091.44;4964845;28;20110;-80
2023/01/15 11:01:32;;;;;;;10.93;1.80;;;7.50;99.90;;;6.09;87.20;99088.47;4960841;28;20035;-81
2023/01/15 11:04:01;;;;;;;14.23;1.85;;;7.50;99.90;;;6.05;87.46;99076.53;4961955;28;20090;-80
2023/01/15 11:06:36;;;;;;;11.45;1.88;;;7.50;99.90;;;6.04;86.75;99080.03;4961766;28;20094;-81
2023/01/15 11:09:03;;;;;;;13.63;2.60;;;7.50;99.90;;;6.08;86.30;99074.56;4961005;28;20039;-81
2023/01/15 11:20:45;;;;;;;14.07;2.22;;;7.60;99.90;;;6.20;85.73;99077.44;4963078;28;20657;-81
2023/01/15 11:23:15;;;;;;;12.60;2.17;;;7.60;99.90;;;6.21;85.35;99073.91;4963134;28;20484;-80
2023/01/15 11:25:59;;;;;;;17.27;2.10;;;7.60;99.90;;;6.21;85.36;99079.13;4997623;23;20039;-80
2023/01/15 11:28:41;;;;;;;20.85;2.30;;;7.70;99.90;;;6.27;85.65;99076.19;4988374;28;20037;-82
2023/01/15 11:31:09;;;;;;;10.48;2.00;;;7.70;99.90;;;6.26;85.45;99077.94;5015661;28;20038;-84
2023/01/15 11:33:37;;;;;;;6.43;1.65;;;7.70;99.90;;;6.25;85.40;99076.25;5008491;28;20166;-83
2023/01/15 11:36:26;;;;;;;7.25;1.30;;;7.70;99.90;;;6.24;85.16;99081.56;5015756;28;20033;-83
2023/01/15 11:38:52;;;;;;;11.43;2.03;;;7.70;99.90;;;6.18;84.76;99088.00;5029021;28;20032;-82
2023/01/15 11:52:53;;;;;;;15.13;2.05;;;7.60;99.90;;;6.20;84.62;99075.69;5027489;28;20099;-82